Aérodrome :
LOGIN :

S'inscrire | Disclaimer

   EN    FR    IT 

 










Légende :    VFR   VFR Marginal   IFR   IFR Intensif   IFR Très Intensif
Visi : 
Plafond : 
>= 8 km
>= 3000ft
5 à 8 km
1000 à 3000 ft
1500m à 5 km
500 à 1000 ft
800 à 1500m
200 à 500 ft
< 800m
< 200 ft
Symboles :   Orages  Brouillard  Fortes neiges  Fortes précipitations  Vent > 20 kt
SIGMETs :   Divers  Orages  Givrage  Turbulence  Onde Orograph.  Cendres Volcan.






- Altitude de l'aérodrome : 11 ft
- Code IATA : PVK


LGPZ - Aktion Lefkada Preveza

DERNIER METAR :
  • 231750Z 00000KT CAVOK 10/09 Q1023 RMK SCT200 BLU

METARs EXPIRÉS :
  • 231720Z 00000KT CAVOK 11/08 Q1023
  • 231650Z 00000KT CAVOK 11/09 Q1023
  • 231620Z 00000KT 9999 FEW080 11/09 Q1023
  • 231550Z 00000KT 9999 FEW080 12/08 Q1023
  • 231520Z 00000KT 9999 FEW080 14/09 Q1023

TAF TAF LGPZ
Valide du 23 à 18h jusqu'au 24 à 18h UTC


231700Z 2318/2418 06010KT 9999 FEW020
BECMG 2410/2412 27010KT
BECMG 2416/2418 06010KT



MET'MAP, la Météo Aéronautique d'un coup d'oeil ! - Copyright ORBIFLY Décembre 2007 - Disclaimer

ORBIFLY MET'MAP TEAM :

Programmation & Développement : Alexandra Zaïnal
Sur une idée originale de : Baudouin d'Aumeries
Assistance à la programmation : Marc-Olivier Méhu
Soutien technique & logistique : Manuel Goepfert

Contact : metmap@orbifly.com




SOURCES & CREDITS :

   NOAA